AYNZ/LAE METAR and TAF weather

Enter ICAO airport designator
Station Type Date Time Source
AYNZ METAR 2021/10/24 21:00 UTC NOAA

AYNZ 242100Z VRB03KT 9999 FEW030 FEW050 24/21 Q1012=


Station Type Date Time Source
AYNZ Decoded METAR 2021/10/24 21:00 UTC NOAA

Station name not available
Oct 24, 2021 - 05:00 PM EDT / 2021.10.24 2100 UTC
Wind: Variable at 3 MPH (3 KT):0
Visibility: greater than 7 mile(s):0
Sky conditions: mostly clear
Temperature: 75 F (24 C)
Dew Point: 69 F (21 C)
Relative Humidity: 83%
Pressure (altimeter): 29.88 in. Hg (1012 hPa)
ob: AYNZ 242100Z VRB03KT 9999 FEW030 FEW050 24/21 Q1012=
cycle: 21

Station Type Date Time Source
AYNZ TAF 2015/08/19 08:15 UTC NOAA

TAF AYNZ 190550Z 1908/1920 09015KT 9999 SCT020 SCT120
FM191400 VRB03KT 9999 BKN040 Q 1011 1014 1013 1010

Example: see airport list